Impacts TAF Board INFO
FOR SITUATIONAL AWARENESS. NOT TO BE USED FOR FLIGHT PLANNING PURPOSES.
IDs:

KHBG - Hattiesburg/Chain Mu, MS, US

Issued at 1741 UTC 21 Nov 2017
Updated at 2303 UTC 21 Nov 2017
Potential Impact None Slight Moderate High
Time2253Z 22/00Z 22/01Z 22/02Z 22/03Z 22/04Z 22/05Z 22/06Z 22/07Z 22/08Z 22/09Z 22/10Z 22/11Z 22/12Z>>
Type OBS PRVL PRVL PRVL PRVL PRVL PRVL PRVL PRVL PRVL PRVL PRVL PRVL PRVL
VIS 10 >6 >6 >6 >6 >6 >6 >6 >6 >6 >6 >6 >6 >6
CIG -- -- -- -- -- -- -- -- -- -- -- -- -- --
Cover CLR FEW FEW FEW FEW FEW FEW FEW FEW FEW FEW FEW FEW FEW
FltCat VFR VFR VFR VFR VFR VFR VFR VFR VFR VFR VFR VFR VFR VFR
WX -- -- -- -- -- -- -- -- -- -- -- -- -- --
WDir 330 250 250 250 250 250 250 250 250 250 250 250 250 250
WSpd 3 4 4 4 4 4 4 4 4 4 4 4 4 4
WGst -- -- -- -- -- -- -- -- -- -- -- -- -- --

Raw TAF
KHBG 211741Z 2118/2218 25004KT P6SM FEW050 FEW150

Raw METAR
KHBG 212253Z AUTO 33003KT 10SM CLR 17/12 A2999 RMK AO2 SLP155 T01670117
KHBG 212153Z AUTO 34004KT 10SM CLR 19/11 A2998 RMK AO2 SLP149 T01940111
KHBG 212053Z AUTO 36005KT 10SM OVC095 20/11 A2997 RMK AO2 SLP148 T02000111 56014

METAR Board
Radar Display
Forecast Discussion

FOR SITUATIONAL AWARENESS. NOT TO BE USED FOR FLIGHT PLANNING PURPOSES.